Time;durP1;ratioP1;P1;durP2;ratioP2;P2;SDS_P1;SDS_P2;PMS_P1;PMS_P2;Temp;Humidity;BMP_temperature;BMP_pressure;BME280_temperature;BME280_humidity;BME280_pressure;Samples;Min_cycle;Max_cycle;Signal;HPM_P1;HPM_P2
2022/05/04 00:01:09;;;;;;;7.07;2.90;;;;;;;;;;5006266;28;20149;-66
2022/05/04 00:03:39;;;;;;;4.38;2.53;;;;;;;;;;5007828;28;20457;-67
2022/05/04 00:06:07;;;;;;;3.55;2.33;;;;;;;;;;5001911;28;20622;-68
2022/05/04 00:08:37;;;;;;;4.50;2.45;;;;;;;;;;5011302;28;20557;-66
2022/05/04 00:11:10;;;;;;;3.47;2.53;;;;;;;;;;5014547;28;20543;-66
2022/05/04 00:13:38;;;;;;;4.43;2.53;;;;;;;;;;5012917;28;20077;-67
2022/05/04 00:16:10;;;;;;;3.72;2.45;;;;;;;;;;5011631;28;20100;-66
2022/05/04 00:18:38;;;;;;;4.35;2.42;;;;;;;;;;5013174;28;20510;-66
2022/05/04 00:21:09;;;;;;;3.47;2.45;;;;;;;;;;4999933;28;20056;-67
2022/05/04 00:23:37;;;;;;;5.43;2.70;;;;;;;;;;5005026;28;20068;-67
2022/05/04 00:26:10;;;;;;;3.13;2.40;;;;;;;;;;4995398;28;20510;-66
2022/05/04 00:28:38;;;;;;;4.13;2.45;;;;;;;;;;5006478;28;20141;-66
2022/05/04 00:31:10;;;;;;;3.55;2.17;;;;;;;;;;5005883;28;20048;-66
2022/05/04 00:33:38;;;;;;;3.42;2.20;;;;;;;;;;5013790;28;20101;-66
2022/05/04 00:36:09;;;;;;;7.80;3.03;;;;;;;;;;5013312;28;20129;-66
2022/05/04 00:38:37;;;;;;;4.20;2.53;;;;;;;;;;5011352;28;20467;-67
2022/05/04 00:41:08;;;;;;;4.85;2.33;;;;;;;;;;5011721;28;20137;-66
2022/05/04 00:43:38;;;;;;;3.72;2.42;;;;;;;;;;5011714;28;20528;-67
2022/05/04 00:46:09;;;;;;;3.58;2.67;;;;;;;;;;5011162;28;20053;-67
2022/05/04 00:48:37;;;;;;;5.55;2.80;;;;;;;;;;5006128;28;20065;-68
2022/05/04 00:51:08;;;;;;;7.28;3.05;;;;;;;;;;5011460;28;20593;-67
2022/05/04 00:53:37;;;;;;;5.60;3.17;;;;;;;;;;5004542;28;20552;-68
2022/05/04 00:56:09;;;;;;;8.27;3.35;;;;;;;;;;5007499;28;20070;-67
2022/05/04 00:58:58;;;;;;;5.20;3.17;;;;;;;;;;5010926;28;20136;-67
2022/05/04 01:01:27;;;;;;;5.90;3.30;;;;;;;;;;5007097;28;20044;-66
2022/05/04 01:03:55;;;;;;;5.45;3.50;;;;;;;;;;5010763;28;20054;-67
2022/05/04 01:06:24;;;;;;;5.80;3.50;;;;;;;;;;5009460;28;20104;-67
2022/05/04 01:08:53;;;;;;;4.72;3.13;;;;;;;;;;4999445;28;20100;-66
2022/05/04 01:11:22;;;;;;;4.38;3.05;;;;;;;;;;4993834;28;20089;-70
2022/05/04 01:14:02;;;;;;;6.72;3.90;;;;;;;;;;5009745;28;20081;-66
2022/05/04 01:16:31;;;;;;;6.72;3.55;;;;;;;;;;4995414;28;20512;-66
2022/05/04 01:18:59;;;;;;;8.45;3.60;;;;;;;;;;5005089;28;20096;-67
2022/05/04 01:21:27;;;;;;;6.28;3.83;;;;;;;;;;5003010;28;20077;-67
2022/05/04 01:23:58;;;;;;;4.53;3.55;;;;;;;;;;5005811;28;20050;-66
2022/05/04 01:26:26;;;;;;;5.20;3.58;;;;;;;;;;5008094;28;20137;-67
2022/05/04 01:28:55;;;;;;;6.45;3.67;;;;;;;;;;5003912;28;20538;-66
2022/05/04 01:31:23;;;;;;;5.00;3.45;;;;;;;;;;5005048;28;20529;-67
2022/05/04 01:33:51;;;;;;;5.05;3.30;;;;;;;;;;5009593;28;20100;-67
2022/05/04 01:36:20;;;;;;;6.22;4.00;;;;;;;;;;5010799;28;20565;-67
2022/05/04 01:38:48;;;;;;;4.53;2.92;;;;;;;;;;5006449;28;20548;-66
2022/05/04 01:44:03;;;;;;;6.65;3.60;;;;;;;;;;5009282;28;20137;-68
2022/05/04 01:46:32;;;;;;;6.60;3.70;;;;;;;;;;4998023;28;20196;-66
2022/05/04 01:49:00;;;;;;;5.05;3.45;;;;;;;;;;5010723;28;20054;-66
2022/05/04 01:51:28;;;;;;;5.80;3.38;;;;;;;;;;5011847;28;20133;-67
2022/05/04 01:53:56;;;;;;;6.10;3.53;;;;;;;;;;5004869;28;20077;-67
2022/05/04 01:56:26;;;;;;;6.10;3.45;;;;;;;;;;5008332;28;20073;-66
2022/05/04 01:58:55;;;;;;;6.68;3.63;;;;;;;;;;5002021;28;20050;-66
2022/05/04 02:01:23;;;;;;;5.57;3.75;;;;;;;;;;5004459;28;20138;-66
2022/05/04 02:03:52;;;;;;;6.72;4.15;;;;;;;;;;5007251;28;20056;-67
2022/05/04 02:06:20;;;;;;;7.47;3.65;;;;;;;;;;5003720;28;20397;-68
2022/05/04 02:08:48;;;;;;;5.13;3.50;;;;;;;;;;5006732;28;20141;-66
2022/05/04 02:11:17;;;;;;;7.80;3.97;;;;;;;;;;5002994;28;20121;-67
2022/05/04 02:13:47;;;;;;;6.93;3.58;;;;;;;;;;5008097;28;20146;-66
2022/05/04 02:16:16;;;;;;;7.47;3.50;;;;;;;;;;4996350;28;20050;-66
2022/05/04 02:18:44;;;;;;;8.00;3.60;;;;;;;;;;5010412;28;20046;-66
2022/05/04 02:21:12;;;;;;;7.47;3.05;;;;;;;;;;4995440;28;20085;-69
2022/05/04 02:23:41;;;;;;;12.15;3.90;;;;;;;;;;5010245;28;20140;-67
2022/05/04 02:26:09;;;;;;;9.38;4.30;;;;;;;;;;5004023;28;20101;-66
2022/05/04 02:28:37;;;;;;;8.45;3.47;;;;;;;;;;5005781;28;20156;-67
2022/05/04 02:31:10;;;;;;;8.77;3.60;;;;;;;;;;5007667;28;20092;-66
2022/05/04 02:33:38;;;;;;;8.43;3.35;;;;;;;;;;5010079;28;20132;-69
2022/05/04 02:38:55;;;;;;;5.43;3.42;;;;;;;;;;5007794;28;20129;-66
2022/05/04 02:41:24;;;;;;;6.43;3.65;;;;;;;;;;5008334;28;20302;-67
2022/05/04 02:43:52;;;;;;;5.22;3.08;;;;;;;;;;5009797;28;20058;-67
2022/05/04 02:46:23;;;;;;;5.05;3.53;;;;;;;;;;5010394;28;20216;-67
2022/05/04 02:48:51;;;;;;;5.57;3.42;;;;;;;;;;5006230;28;20053;-67
2022/05/04 02:51:19;;;;;;;6.82;3.72;;;;;;;;;;5000677;28;20121;-67
2022/05/04 02:53:48;;;;;;;4.78;3.33;;;;;;;;;;5007100;28;20326;-66
2022/05/04 02:56:16;;;;;;;6.88;3.60;;;;;;;;;;5008776;28;20520;-66
2022/05/04 02:58:45;;;;;;;8.52;3.60;;;;;;;;;;5009047;28;20085;-66
2022/05/04 03:04:04;;;;;;;5.38;3.30;;;;;;;;;;5007438;28;20105;-67
2022/05/04 03:06:32;;;;;;;6.78;4.00;;;;;;;;;;5007054;28;20462;-68
2022/05/04 03:09:01;;;;;;;3.70;2.92;;;;;;;;;;4999318;28;20469;-67
2022/05/04 03:14:17;;;;;;;5.63;3.30;;;;;;;;;;5006045;28;20092;-67
2022/05/04 03:16:46;;;;;;;4.75;3.47;;;;;;;;;;5009998;28;20050;-67
2022/05/04 03:19:16;;;;;;;5.75;3.40;;;;;;;;;;5009615;28;20166;-66
2022/05/04 03:21:45;;;;;;;9.32;3.80;;;;;;;;;;5005635;28;20132;-66
2022/05/04 03:24:13;;;;;;;4.63;3.40;;;;;;;;;;5009388;28;20076;-69
2022/05/04 03:26:41;;;;;;;5.70;2.83;;;;;;;;;;4998342;28;20050;-67
2022/05/04 03:29:10;;;;;;;5.07;3.47;;;;;;;;;;5004103;28;20140;-66
2022/05/04 03:31:39;;;;;;;3.65;2.97;;;;;;;;;;5006648;28;20859;-66
2022/05/04 03:34:07;;;;;;;4.85;3.20;;;;;;;;;;5007158;28;20049;-67
2022/05/04 03:36:37;;;;;;;7.78;3.20;;;;;;;;;;5001612;28;20499;-66
2022/05/04 03:39:06;;;;;;;6.20;2.88;;;;;;;;;;5008557;28;20502;-67
2022/05/04 03:41:34;;;;;;;4.70;2.88;;;;;;;;;;5007298;28;20147;-66
2022/05/04 03:44:03;;;;;;;6.18;2.88;;;;;;;;;;5000613;28;20104;-66
2022/05/04 03:46:42;;;;;;;6.20;3.25;;;;;;;;;;4996993;28;20583;-67
2022/05/04 03:49:10;;;;;;;6.15;3.60;;;;;;;;;;5006795;28;20054;-66
2022/05/04 03:51:40;;;;;;;4.55;2.83;;;;;;;;;;5006193;28;20096;-66
2022/05/04 03:54:09;;;;;;;6.15;3.20;;;;;;;;;;4998768;28;20150;-67
2022/05/04 03:56:37;;;;;;;5.22;2.95;;;;;;;;;;5004081;28;20065;-69
2022/05/04 03:59:06;;;;;;;4.70;3.33;;;;;;;;;;5007148;28;20468;-66
2022/05/04 04:01:34;;;;;;;4.53;3.00;;;;;;;;;;5007285;28;20146;-66
2022/05/04 04:04:04;;;;;;;4.75;2.88;;;;;;;;;;4997670;28;20125;-66
2022/05/04 04:06:33;;;;;;;4.68;2.90;;;;;;;;;;5004692;28;20046;-67
2022/05/04 04:09:03;;;;;;;5.10;3.55;;;;;;;;;;5003569;28;20141;-69
2022/05/04 04:11:32;;;;;;;4.60;2.60;;;;;;;;;;5005133;28;20050;-67
2022/05/04 04:14:00;;;;;;;6.97;2.90;;;;;;;;;;5008772;28;20136;-67
2022/05/04 04:16:29;;;;;;;5.18;3.28;;;;;;;;;;5006471;28;20045;-66
2022/05/04 04:18:58;;;;;;;6.22;3.13;;;;;;;;;;4995497;28;20085;-66
2022/05/04 04:24:14;;;;;;;5.25;3.20;;;;;;;;;;5000506;28;20142;-68
2022/05/04 04:26:42;;;;;;;5.40;3.55;;;;;;;;;;5008028;28;20054;-67
2022/05/04 04:29:11;;;;;;;6.35;3.05;;;;;;;;;;5004487;28;20164;-66
2022/05/04 04:31:39;;;;;;;5.25;3.25;;;;;;;;;;5005326;28;20145;-66
2022/05/04 04:34:08;;;;;;;4.90;2.95;;;;;;;;;;5006809;28;20049;-66
2022/05/04 04:36:40;;;;;;;5.57;3.38;;;;;;;;;;5006657;28;20394;-66
2022/05/04 04:39:09;;;;;;;5.03;3.25;;;;;;;;;;5003243;28;20048;-67
2022/05/04 04:41:38;;;;;;;7.60;3.33;;;;;;;;;;5006319;28;20085;-67
2022/05/04 04:44:07;;;;;;;6.22;3.35;;;;;;;;;;5009366;28;20088;-66
2022/05/04 04:46:35;;;;;;;5.70;3.78;;;;;;;;;;5007921;28;20129;-66
2022/05/04 04:49:03;;;;;;;6.18;3.50;;;;;;;;;;5004971;28;20042;-66
2022/05/04 04:51:32;;;;;;;5.85;3.28;;;;;;;;;;4996856;28;20533;-67
2022/05/04 04:54:00;;;;;;;5.35;3.08;;;;;;;;;;5009729;28;20092;-67
2022/05/04 04:56:28;;;;;;;4.90;3.60;;;;;;;;;;5007056;28;20147;-67
2022/05/04 04:58:58;;;;;;;6.03;3.20;;;;;;;;;;5011229;28;20132;-66
2022/05/04 05:01:26;;;;;;;4.00;2.72;;;;;;;;;;5011020;28;20125;-67
2022/05/04 05:03:55;;;;;;;5.43;3.00;;;;;;;;;;5010786;28;20058;-67
2022/05/04 05:06:25;;;;;;;6.35;3.63;;;;;;;;;;5007309;28;20311;-67
2022/05/04 05:08:53;;;;;;;6.22;3.33;;;;;;;;;;5006875;28;20065;-69
2022/05/04 05:11:22;;;;;;;5.85;3.75;;;;;;;;;;5008073;28;20085;-67
2022/05/04 05:16:37;;;;;;;5.95;4.07;;;;;;;;;;5004019;28;20046;-69
2022/05/04 05:19:06;;;;;;;5.88;2.78;;;;;;;;;;5007213;28;20088;-66
2022/05/04 05:21:34;;;;;;;5.75;3.38;;;;;;;;;;5012541;28;20068;-66
2022/05/04 05:24:03;;;;;;;4.80;3.08;;;;;;;;;;5011990;28;20556;-66
2022/05/04 05:26:31;;;;;;;6.22;3.47;;;;;;;;;;5009930;28;20124;-67
2022/05/04 05:28:59;;;;;;;4.40;3.08;;;;;;;;;;5004089;28;20074;-66
2022/05/04 05:31:28;;;;;;;4.75;3.35;;;;;;;;;;4993154;28;20126;-69
2022/05/04 05:33:58;;;;;;;6.88;3.45;;;;;;;;;;4994727;28;20499;-66
2022/05/04 05:36:26;;;;;;;8.75;3.28;;;;;;;;;;5011066;28;20046;-67
2022/05/04 05:38:55;;;;;;;4.88;3.33;;;;;;;;;;5010835;28;20137;-67
2022/05/04 05:41:24;;;;;;;6.47;3.83;;;;;;;;;;5012736;28;20045;-66
2022/05/04 05:43:52;;;;;;;4.63;3.28;;;;;;;;;;5011677;28;20919;-68
2022/05/04 05:46:21;;;;;;;4.88;3.30;;;;;;;;;;5010998;28;20050;-67
2022/05/04 05:48:49;;;;;;;7.55;3.47;;;;;;;;;;5010418;28;20050;-66
2022/05/04 05:51:19;;;;;;;4.45;3.17;;;;;;;;;;5009493;28;20089;-67
2022/05/04 05:53:47;;;;;;;5.50;3.33;;;;;;;;;;5009803;28;20050;-67
2022/05/04 05:56:15;;;;;;;6.15;2.95;;;;;;;;;;5011779;28;20057;-66
2022/05/04 05:58:44;;;;;;;6.03;3.00;;;;;;;;;;5009725;28;20486;-68
2022/05/04 06:01:12;;;;;;;5.07;3.20;;;;;;;;;;5009509;28;20429;-66
2022/05/04 06:03:41;;;;;;;7.90;3.17;;;;;;;;;;5008229;28;20100;-67
2022/05/04 06:06:13;;;;;;;4.95;3.33;;;;;;;;;;5011757;28;20050;-66
2022/05/04 06:08:42;;;;;;;7.22;3.75;;;;;;;;;;5009999;28;20133;-67
2022/05/04 06:11:11;;;;;;;6.97;3.50;;;;;;;;;;5009529;28;20553;-67
2022/05/04 06:13:39;;;;;;;6.15;3.50;;;;;;;;;;5007686;28;20141;-67
2022/05/04 06:16:10;;;;;;;7.05;3.28;;;;;;;;;;5010943;28;20084;-67
2022/05/04 06:18:38;;;;;;;5.80;3.28;;;;;;;;;;5010138;28;20052;-67
2022/05/04 06:21:10;;;;;;;6.15;3.67;;;;;;;;;;5002317;28;20077;-67
2022/05/04 06:23:38;;;;;;;4.38;3.22;;;;;;;;;;5010314;28;20137;-67
2022/05/04 06:26:11;;;;;;;6.10;3.53;;;;;;;;;;5011637;28;20038;-66
2022/05/04 06:28:39;;;;;;;6.30;3.70;;;;;;;;;;5008681;28;20050;-67
2022/05/04 06:34:10;;;;;;;8.75;3.78;;;;;;;;;;4995226;28;20513;-67
2022/05/04 06:36:40;;;;;;;6.80;3.65;;;;;;;;;;5005286;28;20108;-66
2022/05/04 06:39:08;;;;;;;6.70;3.65;;;;;;;;;;5007274;28;20552;-67
2022/05/04 06:41:39;;;;;;;5.32;3.50;;;;;;;;;;5007603;28;20085;-66
2022/05/04 06:44:07;;;;;;;5.32;2.80;;;;;;;;;;5008712;28;20057;-68
2022/05/04 06:46:41;;;;;;;6.18;3.20;;;;;;;;;;5010505;28;20045;-67
2022/05/04 06:49:11;;;;;;;4.53;3.30;;;;;;;;;;5007799;28;20050;-67
2022/05/04 06:51:39;;;;;;;5.72;3.13;;;;;;;;;;5008020;28;20053;-67
2022/05/04 06:54:08;;;;;;;4.70;2.90;;;;;;;;;;5009565;28;20497;-66
2022/05/04 06:56:53;;;;;;;6.22;3.00;;;;;;;;;;5005079;28;20058;-66
2022/05/04 06:59:21;;;;;;;9.38;3.60;;;;;;;;;;5008097;28;20093;-67
2022/05/04 07:01:50;;;;;;;4.30;2.72;;;;;;;;;;5007476;28;20498;-67
2022/05/04 07:04:18;;;;;;;6.40;3.33;;;;;;;;;;5005584;28;20046;-67
2022/05/04 07:06:47;;;;;;;4.22;3.08;;;;;;;;;;5010742;28;20066;-68
2022/05/04 07:09:15;;;;;;;7.70;3.00;;;;;;;;;;5009249;28;20095;-68
2022/05/04 07:11:44;;;;;;;4.70;3.30;;;;;;;;;;5009460;28;20485;-69
2022/05/04 07:14:18;;;;;;;4.65;3.50;;;;;;;;;;4999742;28;20133;-67
2022/05/04 07:16:47;;;;;;;4.38;2.90;;;;;;;;;;5005753;28;20108;-67
2022/05/04 07:19:16;;;;;;;5.13;3.00;;;;;;;;;;4999682;28;20520;-67
2022/05/04 07:21:45;;;;;;;6.30;3.67;;;;;;;;;;5010691;28;20518;-69
2022/05/04 07:24:13;;;;;;;7.03;3.30;;;;;;;;;;5010277;28;20102;-67
2022/05/04 07:26:42;;;;;;;4.57;3.20;;;;;;;;;;4992536;28;20101;-67
2022/05/04 07:29:11;;;;;;;5.25;3.15;;;;;;;;;;5001014;28;20119;-68
2022/05/04 07:31:44;;;;;;;5.97;3.60;;;;;;;;;;5007011;28;20134;-68
2022/05/04 07:34:14;;;;;;;5.78;2.88;;;;;;;;;;5007901;28;20782;-69
2022/05/04 07:36:43;;;;;;;6.07;3.25;;;;;;;;;;5006785;28;20055;-71
2022/05/04 07:42:21;;;;;;;4.20;2.85;;;;;;;;;;4998194;28;20045;-67
2022/05/04 07:44:47;;;;;;;8.07;3.45;;;;;;;;;;4997369;28;20391;-67
2022/05/04 07:47:17;;;;;;;4.68;3.30;;;;;;;;;;4991720;28;20050;-67
2022/05/04 07:49:45;;;;;;;5.93;2.92;;;;;;;;;;5002208;28;20124;-67
2022/05/04 07:52:14;;;;;;;3.70;2.85;;;;;;;;;;5010023;28;20112;-68
2022/05/04 07:54:42;;;;;;;6.60;3.00;;;;;;;;;;5009437;28;20494;-67
2022/05/04 07:57:11;;;;;;;4.82;2.83;;;;;;;;;;5011167;28;20062;-67
2022/05/04 07:59:39;;;;;;;5.95;2.55;;;;;;;;;;5001044;28;20061;-67
2022/05/04 08:04:58;;;;;;;3.67;2.47;;;;;;;;;;4997679;28;20557;-66
2022/05/04 08:07:27;;;;;;;2.83;2.00;;;;;;;;;;5007706;28;20050;-67
2022/05/04 08:09:55;;;;;;;3.00;1.80;;;;;;;;;;5006339;28;20114;-66
2022/05/04 08:12:23;;;;;;;3.08;2.22;;;;;;;;;;5010591;28;20096;-66
2022/05/04 08:14:52;;;;;;;2.50;1.60;;;;;;;;;;5008175;28;20100;-67
2022/05/04 08:17:21;;;;;;;5.03;2.13;;;;;;;;;;5010798;28;20105;-67
2022/05/04 08:19:50;;;;;;;2.97;2.05;;;;;;;;;;5009655;28;20065;-67
2022/05/04 08:22:20;;;;;;;3.53;1.88;;;;;;;;;;4998308;28;20413;-67
2022/05/04 08:24:49;;;;;;;4.38;1.90;;;;;;;;;;5009370;28;20108;-67
2022/05/04 08:27:17;;;;;;;2.42;1.90;;;;;;;;;;5012324;28;20107;-68
2022/05/04 08:29:46;;;;;;;3.03;2.17;;;;;;;;;;5013666;28;20046;-67
2022/05/04 08:32:15;;;;;;;2.50;1.88;;;;;;;;;;5013939;28;20148;-68
2022/05/04 08:34:44;;;;;;;2.72;1.73;;;;;;;;;;5013731;28;20050;-67
2022/05/04 08:37:13;;;;;;;3.30;2.00;;;;;;;;;;5000426;28;20074;-66
2022/05/04 08:39:43;;;;;;;2.40;1.63;;;;;;;;;;5010106;28;20391;-66
2022/05/04 08:42:13;;;;;;;3.92;1.90;;;;;;;;;;5012237;28;20054;-67
2022/05/04 08:44:49;;;;;;;2.33;1.85;;;;;;;;;;5011933;28;20038;-66
2022/05/04 08:47:18;;;;;;;3.47;1.60;;;;;;;;;;4997158;28;20141;-67
2022/05/04 08:49:48;;;;;;;3.30;1.75;;;;;;;;;;5011935;28;20410;-67
2022/05/04 08:52:17;;;;;;;3.33;1.77;;;;;;;;;;5009073;28;20053;-67
2022/05/04 08:54:48;;;;;;;2.30;1.65;;;;;;;;;;5008136;28;20061;-67
2022/05/04 08:57:17;;;;;;;2.05;1.17;;;;;;;;;;5002215;28;20054;-67
2022/05/04 08:59:45;;;;;;;1.98;1.40;;;;;;;;;;5007675;28;20449;-67
2022/05/04 09:02:14;;;;;;;2.25;1.35;;;;;;;;;;5006029;28;20432;-67
2022/05/04 09:04:43;;;;;;;2.10;1.30;;;;;;;;;;5006592;28;20644;-67
2022/05/04 09:07:22;;;;;;;2.60;1.35;;;;;;;;;;5005632;28;20073;-66
2022/05/04 09:09:54;;;;;;;2.78;1.60;;;;;;;;;;5004660;28;20112;-67
2022/05/04 09:12:23;;;;;;;1.88;1.30;;;;;;;;;;5006007;28;20108;-67
2022/05/04 09:14:51;;;;;;;1.30;1.10;;;;;;;;;;5004389;28;20155;-67
2022/05/04 09:17:23;;;;;;;2.45;1.33;;;;;;;;;;5006446;28;20057;-69
2022/05/04 09:22:41;;;;;;;2.40;1.15;;;;;;;;;;4975519;28;20529;-67
2022/05/04 09:25:16;;;;;;;2.50;1.50;;;;;;;;;;5005247;28;20120;-67
2022/05/04 09:27:44;;;;;;;4.95;2.42;;;;;;;;;;5006128;28;20116;-69
2022/05/04 09:30:13;;;;;;;2.20;1.60;;;;;;;;;;5006405;28;20138;-67
2022/05/04 09:32:42;;;;;;;3.70;2.00;;;;;;;;;;5005853;28;20054;-68
2022/05/04 09:35:14;;;;;;;2.53;2.08;;;;;;;;;;5005152;28;20053;-67
2022/05/04 09:46:12;;;;;;;3.92;1.83;;;;;;;;;;5005102;28;20050;-68
2022/05/04 09:48:40;;;;;;;2.80;2.03;;;;;;;;;;5002244;28;20068;-67
2022/05/04 09:51:12;;;;;;;4.25;1.88;;;;;;;;;;5003443;28;20236;-68
2022/05/04 09:53:40;;;;;;;4.22;1.92;;;;;;;;;;5003341;28;20103;-68
2022/05/04 09:56:10;;;;;;;7.53;2.05;;;;;;;;;;5003485;28;20562;-68
2022/05/04 09:58:39;;;;;;;3.75;1.95;;;;;;;;;;5004922;28;20086;-70
2022/05/04 10:01:11;;;;;;;3.55;2.08;;;;;;;;;;5005736;28;20143;-67
2022/05/04 10:03:40;;;;;;;4.78;2.03;;;;;;;;;;5004763;28;20046;-68
2022/05/04 10:06:11;;;;;;;3.28;2.15;;;;;;;;;;5005948;28;20862;-67
2022/05/04 10:08:40;;;;;;;4.10;2.13;;;;;;;;;;5004578;28;20049;-69
2022/05/04 10:11:14;;;;;;;5.57;1.80;;;;;;;;;;5004693;28;20092;-67
2022/05/04 10:13:42;;;;;;;6.78;2.17;;;;;;;;;;5005057;28;20785;-67
2022/05/04 10:16:11;;;;;;;5.28;1.95;;;;;;;;;;5004221;28;20049;-67
2022/05/04 10:18:40;;;;;;;5.05;2.00;;;;;;;;;;5004787;28;20085;-67
2022/05/04 10:21:11;;;;;;;3.85;2.00;;;;;;;;;;5000518;28;20150;-68
2022/05/04 10:23:42;;;;;;;4.57;2.30;;;;;;;;;;5005439;28;20527;-67
2022/05/04 10:26:14;;;;;;;5.32;2.00;;;;;;;;;;5003693;28;20143;-68
2022/05/04 10:30:29;;;;;;;2.33;1.42;;;;;;;;;;5004441;28;20046;-67
2022/05/04 10:31:35;;;;;;;3.35;1.77;;;;;;;;;;5005925;28;20070;-69
2022/05/04 10:34:04;;;;;;;4.65;2.00;;;;;;;;;;5005020;28;20180;-67
2022/05/04 10:36:46;;;;;;;2.67;2.00;;;;;;;;;;5005782;28;20137;-67
2022/05/04 10:39:20;;;;;;;6.32;2.30;;;;;;;;;;5001371;28;20249;-69
2022/05/04 10:41:50;;;;;;;3.33;1.70;;;;;;;;;;5004298;28;20100;-67
2022/05/04 10:44:18;;;;;;;2.88;1.85;;;;;;;;;;5005124;28;20807;-67
2022/05/04 10:46:49;;;;;;;2.83;1.50;;;;;;;;;;5001941;28;20169;-67
2022/05/04 10:49:18;;;;;;;5.25;2.00;;;;;;;;;;5002568;28;20429;-69
2022/05/04 10:51:47;;;;;;;2.85;1.80;;;;;;;;;;5004620;28;20721;-67
2022/05/04 10:54:18;;;;;;;3.00;1.63;;;;;;;;;;5002441;28;20180;-67
2022/05/04 10:56:56;;;;;;;3.63;1.67;;;;;;;;;;5005580;28;20057;-67
2022/05/04 10:59:25;;;;;;;3.25;1.73;;;;;;;;;;5000871;28;20061;-71
2022/05/04 11:01:57;;;;;;;2.85;1.60;;;;;;;;;;5001453;28;20306;-69
2022/05/04 11:04:26;;;;;;;2.78;1.92;;;;;;;;;;5000527;28;20057;-70
2022/05/04 11:07:05;;;;;;;2.60;1.90;;;;;;;;;;5002214;28;20081;-68
2022/05/04 11:09:37;;;;;;;3.00;1.75;;;;;;;;;;5001269;28;20107;-68
2022/05/04 11:12:08;;;;;;;4.38;1.92;;;;;;;;;;5003338;28;20057;-70
2022/05/04 11:14:37;;;;;;;3.33;1.92;;;;;;;;;;5003056;28;20049;-67
2022/05/04 11:17:10;;;;;;;3.05;2.13;;;;;;;;;;4999768;28;20513;-67
2022/05/04 11:19:42;;;;;;;6.05;2.13;;;;;;;;;;5001818;28;20131;-68
2022/05/04 11:22:11;;;;;;;3.90;1.92;;;;;;;;;;5000582;28;20061;-68
2022/05/04 11:25:01;;;;;;;3.05;2.05;;;;;;;;;;4998595;28;20056;-67
2022/05/04 11:27:30;;;;;;;3.03;1.80;;;;;;;;;;5000025;28;20482;-67
2022/05/04 11:29:59;;;;;;;4.35;2.03;;;;;;;;;;5001365;28;20104;-66
2022/05/04 11:32:32;;;;;;;3.88;1.83;;;;;;;;;;5001575;28;20116;-67
2022/05/04 11:35:01;;;;;;;2.03;1.52;;;;;;;;;;5000500;28;20528;-66
2022/05/04 11:37:32;;;;;;;3.35;2.00;;;;;;;;;;5000429;28;20065;-67
2022/05/04 11:40:10;;;;;;;2.53;1.95;;;;;;;;;;5001985;28;20058;-67
2022/05/04 11:42:40;;;;;;;3.08;1.90;;;;;;;;;;5000109;28;20061;-66
2022/05/04 11:45:09;;;;;;;6.95;2.17;;;;;;;;;;4999612;28;20069;-66
2022/05/04 11:47:37;;;;;;;4.20;2.55;;;;;;;;;;5002065;28;20061;-67
2022/05/04 11:50:06;;;;;;;4.53;1.98;;;;;;;;;;4996771;28;20457;-66
2022/05/04 11:52:35;;;;;;;7.93;2.55;;;;;;;;;;5003387;28;20062;-66
2022/05/04 11:55:03;;;;;;;3.58;2.17;;;;;;;;;;5000045;28;20077;-66
2022/05/04 11:57:33;;;;;;;2.50;1.73;;;;;;;;;;5002538;28;20050;-66
2022/05/04 12:00:03;;;;;;;4.15;1.95;;;;;;;;;;5001243;28;20473;-66
2022/05/04 12:02:31;;;;;;;3.20;2.17;;;;;;;;;;5001815;28;20477;-66
2022/05/04 12:05:00;;;;;;;6.82;2.58;;;;;;;;;;5007389;28;20046;-66
2022/05/04 12:07:32;;;;;;;4.80;2.25;;;;;;;;;;5002499;28;20465;-67
2022/05/04 12:10:01;;;;;;;3.13;2.17;;;;;;;;;;5007281;28;20057;-66
2022/05/04 12:12:31;;;;;;;3.97;2.45;;;;;;;;;;5006184;28;20462;-67
2022/05/04 12:15:05;;;;;;;3.50;2.13;;;;;;;;;;5002976;28;20108;-66
2022/05/04 12:17:36;;;;;;;4.03;2.25;;;;;;;;;;5007300;28;20058;-66
2022/05/04 12:20:05;;;;;;;2.88;1.60;;;;;;;;;;5006330;28;20099;-68
2022/05/04 12:22:34;;;;;;;5.45;1.90;;;;;;;;;;5007080;28;20054;-67
2022/05/04 12:25:04;;;;;;;2.35;1.85;;;;;;;;;;5005323;28;20439;-68
2022/05/04 12:27:34;;;;;;;2.72;1.60;;;;;;;;;;5006819;28;20052;-66
2022/05/04 12:35:37;;;;;;;2.00;1.35;;;;;;;;;;5005841;28;20042;-67
2022/05/04 12:38:06;;;;;;;3.55;1.90;;;;;;;;;;5006912;28;20062;-68
2022/05/04 12:40:35;;;;;;;2.75;1.70;;;;;;;;;;5005533;28;20089;-70
2022/05/04 12:43:05;;;;;;;2.83;1.50;;;;;;;;;;5004295;28;20046;-68
2022/05/04 12:45:36;;;;;;;2.72;1.63;;;;;;;;;;5005891;28;20514;-68
2022/05/04 12:48:06;;;;;;;2.50;1.48;;;;;;;;;;5004599;28;20081;-67
2022/05/04 12:50:35;;;;;;;1.70;1.58;;;;;;;;;;5004562;28;20045;-67
2022/05/04 12:53:05;;;;;;;2.53;1.77;;;;;;;;;;5006152;28;20088;-67
2022/05/04 12:58:20;;;;;;;2.65;1.40;;;;;;;;;;5004630;28;20061;-68
2022/05/04 13:00:50;;;;;;;2.40;1.33;;;;;;;;;;4992387;28;20060;-68
2022/05/04 13:03:19;;;;;;;3.40;1.63;;;;;;;;;;5005152;28;20752;-67
2022/05/04 13:05:47;;;;;;;2.10;1.60;;;;;;;;;;5002201;28;20168;-67
2022/05/04 13:08:16;;;;;;;2.63;1.90;;;;;;;;;;5002980;28;20379;-67
2022/05/04 13:10:47;;;;;;;2.13;1.58;;;;;;;;;;4999797;28;20066;-67
2022/05/04 13:13:16;;;;;;;2.80;1.38;;;;;;;;;;5002806;28;20050;-68
2022/05/04 13:15:44;;;;;;;3.45;1.75;;;;;;;;;;5006087;28;20061;-66
2022/05/04 13:18:14;;;;;;;3.85;1.67;;;;;;;;;;5005265;28;20053;-67
2022/05/04 13:20:43;;;;;;;2.65;1.60;;;;;;;;;;5003774;28;20053;-67
2022/05/04 13:23:11;;;;;;;2.17;1.42;;;;;;;;;;5005129;28;20050;-66
2022/05/04 13:25:40;;;;;;;2.47;1.27;;;;;;;;;;5003391;28;20509;-67
2022/05/04 13:28:09;;;;;;;2.33;1.60;;;;;;;;;;5004183;28;20046;-69
2022/05/04 13:30:37;;;;;;;3.72;1.80;;;;;;;;;;5004567;28;20087;-67
2022/05/04 13:33:05;;;;;;;4.82;1.98;;;;;;;;;;5003870;28;20141;-67
2022/05/04 13:35:36;;;;;;;3.03;1.42;;;;;;;;;;5002953;28;20042;-67
2022/05/04 13:38:05;;;;;;;1.92;1.50;;;;;;;;;;5000284;28;20141;-67
2022/05/04 13:40:33;;;;;;;1.95;1.70;;;;;;;;;;5002754;28;20951;-67
2022/05/04 13:43:02;;;;;;;3.30;1.70;;;;;;;;;;5001434;28;20132;-67
2022/05/04 13:45:30;;;;;;;2.63;1.63;;;;;;;;;;5003640;28;20041;-67
2022/05/04 13:47:59;;;;;;;2.20;1.73;;;;;;;;;;5000348;28;20553;-66
2022/05/04 13:53:15;;;;;;;2.90;1.67;;;;;;;;;;5000376;28;20073;-67
2022/05/04 13:55:43;;;;;;;2.83;1.60;;;;;;;;;;5005099;28;20537;-67
2022/05/04 13:58:12;;;;;;;1.95;1.45;;;;;;;;;;5001830;28;20354;-68
2022/05/04 14:00:41;;;;;;;2.25;1.42;;;;;;;;;;5001554;28;20050;-68
2022/05/04 14:03:10;;;;;;;2.97;1.75;;;;;;;;;;5004627;28;20042;-70
2022/05/04 14:05:38;;;;;;;3.00;1.73;;;;;;;;;;5004331;28;20108;-67
2022/05/04 14:08:07;;;;;;;2.53;1.60;;;;;;;;;;4999009;28;20517;-69
2022/05/04 14:10:39;;;;;;;3.28;1.75;;;;;;;;;;5002215;28;20144;-68
2022/05/04 14:13:08;;;;;;;2.28;1.70;;;;;;;;;;5001005;28;20054;-67
2022/05/04 14:15:36;;;;;;;4.00;2.00;;;;;;;;;;5003983;28;20050;-68
2022/05/04 14:18:05;;;;;;;3.65;1.20;;;;;;;;;;5002029;28;20465;-67
2022/05/04 14:20:34;;;;;;;1.95;1.33;;;;;;;;;;5001682;28;20038;-67
2022/05/04 14:23:03;;;;;;;4.32;1.88;;;;;;;;;;5002635;28;20237;-68
2022/05/04 14:25:32;;;;;;;3.13;1.50;;;;;;;;;;5001960;28;20053;-67
2022/05/04 14:28:02;;;;;;;3.13;1.70;;;;;;;;;;5003973;28;20539;-66
2022/05/04 14:30:30;;;;;;;2.53;1.65;;;;;;;;;;5002431;28;20096;-68
2022/05/04 14:32:59;;;;;;;3.10;1.50;;;;;;;;;;5003975;28;20682;-68
2022/05/04 14:35:27;;;;;;;3.17;1.33;;;;;;;;;;5001548;28;20049;-67
2022/05/04 14:37:56;;;;;;;2.35;1.50;;;;;;;;;;5001923;28;20065;-67
2022/05/04 14:40:24;;;;;;;3.08;1.27;;;;;;;;;;5001431;28;20049;-67
2022/05/04 14:42:55;;;;;;;2.25;1.45;;;;;;;;;;5003544;28;20057;-67
2022/05/04 14:45:25;;;;;;;2.33;1.27;;;;;;;;;;5004647;28;20132;-67
2022/05/04 14:47:54;;;;;;;2.08;1.20;;;;;;;;;;5001961;28;20517;-67
2022/05/04 14:50:23;;;;;;;1.95;1.65;;;;;;;;;;5000979;28;20038;-69
2022/05/04 14:52:52;;;;;;;2.03;1.42;;;;;;;;;;5001507;28;20150;-68
2022/05/04 14:55:21;;;;;;;2.72;1.67;;;;;;;;;;5000838;28;20408;-67
2022/05/04 14:57:50;;;;;;;1.88;1.30;;;;;;;;;;5003721;28;20054;-69
2022/05/04 15:00:20;;;;;;;1.65;1.35;;;;;;;;;;5003682;28;20081;-67
2022/05/04 15:05:36;;;;;;;1.90;1.52;;;;;;;;;;5003277;28;20092;-67
2022/05/04 15:08:05;;;;;;;2.15;1.40;;;;;;;;;;5001570;28;20557;-69
2022/05/04 15:10:33;;;;;;;1.88;1.67;;;;;;;;;;5001649;28;20057;-67
2022/05/04 15:13:01;;;;;;;3.45;2.30;;;;;;;;;;5002506;28;20112;-67
2022/05/04 15:15:30;;;;;;;3.60;2.00;;;;;;;;;;5003247;28;20089;-67
2022/05/04 15:18:00;;;;;;;3.00;1.95;;;;;;;;;;5002916;28;20042;-67
2022/05/04 15:20:29;;;;;;;3.20;2.03;;;;;;;;;;5002049;28;20441;-67
2022/05/04 15:22:57;;;;;;;3.28;1.45;;;;;;;;;;4999542;28;20479;-68
2022/05/04 15:25:25;;;;;;;2.33;1.52;;;;;;;;;;5000976;28;20161;-68
2022/05/04 15:27:54;;;;;;;3.22;2.00;;;;;;;;;;5002277;28;20133;-69
2022/05/04 15:30:22;;;;;;;4.00;1.90;;;;;;;;;;5000492;28;20104;-67
2022/05/04 15:32:51;;;;;;;2.33;1.58;;;;;;;;;;5002957;28;20501;-68
2022/05/04 15:35:21;;;;;;;2.28;1.77;;;;;;;;;;5000217;28;20457;-70
2022/05/04 15:37:49;;;;;;;4.82;1.80;;;;;;;;;;5001371;28;20081;-70
2022/05/04 15:40:18;;;;;;;2.30;1.77;;;;;;;;;;5001503;28;20065;-68
2022/05/04 15:42:46;;;;;;;2.53;1.70;;;;;;;;;;4999501;28;20050;-67
2022/05/04 15:45:15;;;;;;;1.92;1.55;;;;;;;;;;4999550;28;20472;-67
2022/05/04 15:47:44;;;;;;;2.33;1.67;;;;;;;;;;5002517;28;20061;-67